createdAt,value
2023-04-10T05:10:38.162Z,100.00
2023-04-10T05:13:41.595Z,100.00
2023-04-10T05:16:44.195Z,100.00
2023-04-10T05:19:46.658Z,100.00
2023-04-10T05:22:49.135Z,100.00
2023-04-10T05:25:53.129Z,100.00
2023-04-10T05:28:56.058Z,100.00
2023-04-10T05:31:58.790Z,100.00
2023-04-10T05:35:01.260Z,100.00
2023-04-10T05:38:03.712Z,100.00
2023-04-10T05:41:07.709Z,100.00
2023-04-10T05:44:10.417Z,100.00
2023-04-10T05:47:12.880Z,100.00
2023-04-10T05:50:15.486Z,100.00
2023-04-10T05:53:21.099Z,100.00
2023-04-10T05:56:25.178Z,100.00
2023-04-10T05:59:27.638Z,100.00
2023-04-10T06:02:30.326Z,100.00
2023-04-10T06:05:32.954Z,100.00
2023-04-10T06:08:35.681Z,100.00
2023-04-10T06:11:39.557Z,100.00
2023-04-10T06:14:42.030Z,100.00
2023-04-10T06:17:44.756Z,100.00
2023-04-10T06:20:47.252Z,100.00
2023-04-10T06:23:49.706Z,100.00
2023-04-10T06:26:53.496Z,100.00
2023-04-10T06:29:56.062Z,100.00
2023-04-10T06:32:58.717Z,100.00
2023-04-10T06:36:01.384Z,100.00
2023-04-10T06:39:03.972Z,100.00
2023-04-10T06:42:07.865Z,100.00
2023-04-10T06:45:11.305Z,100.00
2023-04-10T06:48:14.483Z,100.00
2023-04-10T06:51:17.220Z,100.00
2023-04-10T06:54:19.836Z,100.00
2023-04-10T06:57:23.753Z,100.00
2023-04-10T07:00:26.576Z,100.00
2023-04-10T07:03:29.192Z,100.00
2023-04-10T07:06:31.763Z,100.00
2023-04-10T07:09:34.234Z,100.00
2023-04-10T07:12:38.118Z,99.41
2023-04-10T07:15:40.599Z,94.57
2023-04-10T07:18:44.660Z,91.57
2023-04-10T07:21:50.095Z,88.63
2023-04-10T07:24:52.687Z,87.85
2023-04-10T07:27:56.681Z,86.62
2023-04-10T07:30:59.126Z,84.08
2023-04-10T07:34:03.448Z,82.39
2023-04-10T07:37:05.990Z,79.67
2023-04-10T07:40:10.021Z,79.70
2023-04-10T07:43:13.882Z,78.32
2023-04-10T07:46:16.441Z,76.79
2023-04-10T07:49:19.088Z,75.57
2023-04-10T07:52:21.583Z,75.65
2023-04-10T07:55:24.120Z,75.01
2023-04-10T07:58:28.006Z,72.63
2023-04-10T08:01:30.627Z,74.43
2023-04-10T08:04:33.494Z,68.93
2023-04-10T08:07:36.396Z,67.51
2023-04-10T08:10:39.508Z,64.46
2023-04-10T08:13:43.361Z,62.22
2023-04-10T08:16:45.952Z,65.21
2023-04-10T08:19:48.498Z,64.08
2023-04-10T08:22:51.395Z,61.90
2023-04-10T08:25:53.865Z,63.43
2023-04-10T08:28:59.843Z,65.29
2023-04-10T08:32:02.410Z,65.75
2023-04-10T08:35:05.635Z,62.92
2023-04-10T08:38:14.103Z,61.38
2023-04-10T08:41:19.876Z,59.73
2023-04-10T08:44:23.898Z,59.46
2023-04-10T08:47:29.464Z,59.79
2023-04-10T08:50:35.254Z,58.34
2023-04-10T08:53:41.198Z,60.15
2023-04-10T08:56:46.816Z,57.29
2023-04-10T08:59:52.404Z,56.53
2023-04-10T09:02:58.373Z,55.55
2023-04-10T09:06:03.270Z,54.56
2023-04-10T09:09:06.676Z,56.71
2023-04-10T09:12:09.239Z,57.43
2023-04-10T09:15:13.936Z,56.30
2023-04-10T09:18:16.460Z,56.72
2023-04-10T09:21:20.633Z,55.98
2023-04-10T09:24:23.887Z,55.90
2023-04-10T09:27:31.249Z,55.69
2023-04-10T09:30:37.545Z,54.86
2023-04-10T09:33:40.041Z,56.19
2023-04-10T09:36:43.271Z,54.85
2023-04-10T09:39:46.064Z,53.17
2023-04-10T09:42:48.736Z,55.36
2023-04-10T09:45:54.164Z,55.71
2023-04-10T09:48:57.215Z,57.44
2023-04-10T09:51:59.789Z,59.38
2023-04-10T09:55:08.594Z,58.58
2023-04-10T09:58:12.191Z,62.44
2023-04-10T10:01:16.497Z,58.80
2023-04-10T10:04:19.464Z,57.48
2023-04-10T10:07:24.843Z,56.65
2023-04-10T10:10:27.608Z,55.07
2023-04-10T10:13:39.502Z,54.66
2023-04-10T10:16:48.696Z,54.47
2023-04-10T10:19:57.973Z,56.20
2023-04-10T10:23:03.548Z,55.16
2023-04-10T10:26:07.377Z,53.19
2023-04-10T10:29:13.369Z,54.76
2023-04-10T10:32:18.320Z,55.53
2023-04-10T10:35:22.408Z,55.57
2023-04-10T10:38:26.308Z,54.42
2023-04-10T10:41:33.703Z,54.88
2023-04-10T10:44:44.076Z,54.39
2023-04-10T10:47:52.039Z,53.01
2023-04-10T10:50:57.410Z,53.57
2023-04-10T10:54:00.170Z,52.99
2023-04-10T10:57:06.388Z,53.63
2023-04-10T11:00:10.263Z,52.89
2023-04-10T11:03:29.596Z,52.56
2023-04-10T11:06:52.952Z,52.86
2023-04-10T11:09:57.264Z,51.11
2023-04-10T11:13:17.138Z,50.88
2023-04-10T11:16:21.276Z,51.87
2023-04-10T11:19:26.440Z,52.20
2023-04-10T11:22:29.228Z,52.21
2023-04-10T11:25:47.396Z,52.78
2023-04-10T11:28:49.997Z,53.66
2023-04-10T11:31:56.719Z,53.38
2023-04-10T11:35:02.405Z,52.64
2023-04-10T11:38:14.831Z,51.36
2023-04-10T11:41:17.394Z,52.27
2023-04-10T11:44:27.978Z,52.89
2023-04-10T11:47:30.621Z,52.33
2023-04-10T11:50:36.130Z,54.03
2023-04-10T11:53:38.827Z,53.99
2023-04-10T11:56:43.150Z,54.45
2023-04-10T11:59:51.409Z,53.56
2023-04-10T12:02:54.218Z,52.56
2023-04-10T12:05:58.418Z,51.85
2023-04-10T12:09:14.297Z,52.04
2023-04-10T12:12:17.283Z,53.18
2023-04-10T12:15:29.688Z,53.70
2023-04-10T12:18:32.666Z,51.11
2023-04-10T12:21:38.485Z,51.99
2023-04-10T12:24:42.531Z,51.58
2023-04-10T12:27:49.805Z,52.76
2023-04-10T12:30:53.801Z,53.32
2023-04-10T12:33:57.895Z,53.23
2023-04-10T12:37:02.813Z,54.91
2023-04-10T12:40:09.257Z,52.88
2023-04-10T12:43:11.715Z,54.31
2023-04-10T12:46:26.613Z,54.32
2023-04-10T12:49:29.104Z,54.15
2023-04-10T12:52:33.269Z,56.77
2023-04-10T12:55:36.008Z,56.92
2023-04-10T12:58:39.274Z,58.93
2023-04-10T13:01:41.859Z,58.65
2023-04-10T13:04:44.640Z,57.61
2023-04-10T13:07:52.640Z,56.82
2023-04-10T13:10:58.149Z,57.64
2023-04-10T13:14:00.924Z,59.68
2023-04-10T13:17:03.483Z,57.64
2023-04-10T13:20:07.410Z,57.93
2023-04-10T13:23:11.355Z,59.29
2023-04-10T13:26:13.851Z,59.50
2023-04-10T13:29:16.297Z,59.75
2023-04-10T13:32:18.763Z,60.65
2023-04-10T13:35:21.869Z,61.43
2023-04-10T13:38:27.457Z,60.01
2023-04-10T13:41:29.901Z,59.30
2023-04-10T13:44:32.479Z,60.95
2023-04-10T13:47:35.028Z,61.73
2023-04-10T13:50:37.567Z,59.25
2023-04-10T13:53:41.589Z,58.93
2023-04-10T13:56:44.469Z,59.54
2023-04-10T13:59:46.951Z,59.94
2023-04-10T14:02:49.507Z,57.66
2023-04-10T14:05:52.701Z,58.98
2023-04-10T14:08:56.711Z,61.07
2023-04-10T14:11:59.466Z,62.02
2023-04-10T14:15:02.088Z,62.27
2023-04-10T14:18:04.707Z,64.12
2023-04-10T14:21:07.878Z,65.21
2023-04-10T14:24:12.020Z,65.28
2023-04-10T14:27:14.640Z,65.19
2023-04-10T14:30:17.126Z,64.97
2023-04-10T14:33:20.808Z,65.88
2023-04-10T14:36:23.328Z,65.00
2023-04-10T14:39:27.186Z,66.36
2023-04-10T14:42:30.110Z,68.55
2023-04-10T14:45:32.660Z,67.97
2023-04-10T14:48:35.355Z,67.81
2023-04-10T14:51:37.866Z,66.92
2023-04-10T14:54:41.647Z,66.24
2023-04-10T14:57:44.185Z,65.53
2023-04-10T15:00:46.654Z,64.46
2023-04-10T15:03:49.377Z,63.21
2023-04-10T15:06:52.306Z,64.47
2023-04-10T15:09:58.567Z,65.09
2023-04-10T15:13:01.026Z,65.73
2023-04-10T15:16:03.493Z,65.86
2023-04-10T15:19:06.044Z,67.17
2023-04-10T15:22:08.501Z,65.76
2023-04-10T15:25:12.754Z,67.86
2023-04-10T15:28:15.318Z,67.92
2023-04-10T15:31:17.865Z,67.63
2023-04-10T15:34:20.474Z,64.98
2023-04-10T15:37:24.199Z,65.43
2023-04-10T15:40:29.281Z,65.40
2023-04-10T15:43:31.761Z,67.08
2023-04-10T15:46:34.457Z,68.11
2023-04-10T15:49:38.299Z,68.25
2023-04-10T15:52:41.503Z,67.60
2023-04-10T15:55:45.382Z,67.70
2023-04-10T15:58:47.851Z,66.16
2023-04-10T16:01:50.538Z,65.42
2023-04-10T16:04:53.235Z,66.63
2023-04-10T16:07:56.110Z,65.03
2023-04-10T16:10:59.895Z,63.77
2023-04-10T16:14:02.450Z,63.93
2023-04-10T16:17:04.918Z,65.14
2023-04-10T16:20:08.251Z,66.01
2023-04-10T16:23:10.914Z,65.61
2023-04-10T16:26:14.835Z,67.34
2023-04-10T16:29:19.959Z,66.54
2023-04-10T16:32:22.465Z,65.77
2023-04-10T16:35:24.984Z,65.86
2023-04-10T16:38:27.483Z,66.89
2023-04-10T16:41:31.358Z,66.83
2023-04-10T16:44:33.822Z,66.17
2023-04-10T16:47:36.473Z,67.39
2023-04-10T16:50:39.129Z,66.78
2023-04-10T16:53:41.658Z,68.42
2023-04-10T16:56:45.655Z,68.19
2023-04-10T16:59:48.132Z,68.67
2023-04-10T17:02:50.834Z,68.85
2023-04-10T17:05:53.331Z,69.21
2023-04-10T17:08:55.929Z,68.81
2023-04-10T17:11:59.958Z,67.62
2023-04-10T17:15:02.487Z,68.34
2023-04-10T17:18:05.013Z,68.77
2023-04-10T17:21:11.985Z,68.42
2023-04-10T17:24:14.904Z,69.42
2023-04-10T17:27:20.270Z,70.10
2023-04-10T17:30:22.733Z,70.03
2023-04-10T17:33:25.198Z,70.68
2023-04-10T17:36:28.100Z,70.84
2023-04-10T17:39:30.690Z,72.30
2023-04-10T17:42:34.531Z,72.74
2023-04-10T17:45:38.183Z,73.31
2023-04-10T17:48:40.713Z,73.38
2023-04-10T17:51:43.225Z,73.90
2023-04-10T17:54:45.680Z,75.16
2023-04-10T17:57:49.564Z,75.52
2023-04-10T18:00:52.243Z,75.71
2023-04-10T18:03:54.898Z,75.87
2023-04-10T18:06:57.412Z,77.97
2023-04-10T18:09:59.869Z,78.02
2023-04-10T18:13:03.678Z,78.26
2023-04-10T18:16:07.103Z,79.28
2023-04-10T18:19:10.005Z,79.68
2023-04-10T18:22:12.692Z,79.62
2023-04-10T18:25:15.631Z,80.60
2023-04-10T18:28:20.528Z,80.44
2023-04-10T18:31:23.069Z,81.36
2023-04-10T18:34:25.548Z,81.72
2023-04-10T18:37:28.038Z,83.32
2023-04-10T18:40:30.591Z,84.03
2023-04-10T18:43:34.411Z,84.10
2023-04-10T18:46:36.983Z,85.80
2023-04-10T18:49:39.658Z,87.46
2023-04-10T18:52:42.121Z,87.71
2023-04-10T18:55:51.372Z,88.38
2023-04-10T18:58:55.175Z,88.73
2023-04-10T19:01:57.729Z,90.04
2023-04-10T19:05:00.419Z,89.68
2023-04-10T19:08:04.545Z,90.09
2023-04-10T19:11:08.327Z,90.19
2023-04-10T19:14:12.135Z,90.89
2023-04-10T19:17:14.608Z,91.04
2023-04-10T19:20:17.071Z,91.63
2023-04-10T19:23:39.499Z,91.17
2023-04-10T19:26:42.028Z,91.37
2023-04-10T19:29:45.946Z,92.21
2023-04-10T19:32:48.456Z,92.14
2023-04-10T19:35:51.060Z,92.06
2023-04-10T19:38:53.901Z,91.32
2023-04-10T19:41:57.702Z,89.70
2023-04-10T19:45:01.546Z,88.64
2023-04-10T19:48:05.118Z,88.14
2023-04-10T19:51:07.764Z,87.03
2023-04-10T19:54:10.339Z,86.84
2023-04-10T19:57:12.881Z,86.91
2023-04-10T20:00:17.090Z,85.91
2023-04-10T20:03:26.449Z,86.02
2023-04-10T20:06:29.084Z,85.81
2023-04-10T20:09:34.096Z,85.79
2023-04-10T20:12:36.684Z,84.50
2023-04-10T20:15:40.586Z,84.77
2023-04-10T20:18:43.077Z,84.19
2023-04-10T20:21:45.612Z,85.23
2023-04-10T20:24:48.212Z,85.48
2023-04-10T20:27:50.777Z,85.92
2023-04-10T20:30:54.583Z,86.16
2023-04-10T20:33:57.163Z,85.91
2023-04-10T20:37:00.761Z,85.78
2023-04-10T20:40:03.384Z,86.60
2023-04-10T20:43:10.881Z,86.32
2023-04-10T20:46:14.846Z,86.25
2023-04-10T20:49:17.628Z,87.81
2023-04-10T20:52:20.182Z,88.32
2023-04-10T20:55:22.689Z,88.74
2023-04-10T20:58:25.248Z,87.89
2023-04-10T21:01:29.382Z,88.31
2023-04-10T21:04:32.675Z,88.76
2023-04-10T21:07:35.216Z,88.10
2023-04-10T21:10:43.889Z,88.70
2023-04-10T21:13:46.495Z,88.34
2023-04-10T21:16:50.456Z,88.95
2023-04-10T21:19:53.036Z,88.49
2023-04-10T21:22:55.541Z,89.16
2023-04-10T21:25:58.128Z,88.68
2023-04-10T21:29:00.599Z,89.04
2023-04-10T21:32:04.564Z,89.18
2023-04-10T21:35:08.417Z,88.32
2023-04-10T21:38:12.466Z,88.13
2023-04-10T21:41:15.368Z,89.18
2023-04-10T21:44:18.094Z,88.72
2023-04-10T21:47:22.026Z,89.23
2023-04-10T21:50:25.599Z,88.88
2023-04-10T21:53:28.340Z,87.76
2023-04-10T21:56:30.806Z,86.52
2023-04-10T21:59:33.410Z,87.43
2023-04-10T22:02:37.383Z,87.51
2023-04-10T22:05:39.973Z,87.83
2023-04-10T22:08:42.576Z,87.87
